Time;durP1;ratioP1;P1;durP2;ratioP2;P2;SDS_P1;SDS_P2;PMS_P1;PMS_P2;Temp;Humidity;BMP_temperature;BMP_pressure;BME280_temperature;BME280_humidity;BME280_pressure;Samples;Min_cycle;Max_cycle;Signal;HPM_P1;HPM_P2
2023/08/06 00:02:27;;;;;;;6.60;1.63;;;15.20;99.90;;;;;;5067784;28;20229;-74
2023/08/06 00:04:58;;;;;;;7.43;1.75;;;15.20;99.90;;;;;;5073516;28;20207;-75
2023/08/06 00:07:29;;;;;;;9.68;1.80;;;15.20;99.90;;;;;;5073778;28;20223;-75
2023/08/06 00:10:00;;;;;;;7.07;1.60;;;15.20;99.90;;;;;;5072638;28;20189;-75
2023/08/06 00:12:32;;;;;;;6.88;1.50;;;15.20;99.90;;;;;;5053341;28;20193;-75
2023/08/06 00:15:03;;;;;;;7.53;1.55;;;15.30;99.90;;;;;;5053417;28;20222;-75
2023/08/06 00:17:34;;;;;;;6.13;1.70;;;15.30;99.90;;;;;;5053703;28;20200;-75
2023/08/06 00:20:05;;;;;;;7.32;1.48;;;15.40;99.90;;;;;;5054264;28;20564;-75
2023/08/06 00:22:37;;;;;;;6.85;1.60;;;15.40;99.90;;;;;;5070612;28;21826;-75
2023/08/06 00:25:08;;;;;;;5.95;1.52;;;15.40;99.90;;;;;;5065826;28;20208;-75
2023/08/06 00:27:41;;;;;;;5.88;1.75;;;15.50;99.90;;;;;;5053322;28;20219;-75
2023/08/06 00:30:12;;;;;;;9.77;2.47;;;15.50;99.90;;;;;;5055185;28;20193;-75
2023/08/06 00:32:43;;;;;;;8.85;1.55;;;15.50;99.90;;;;;;5071147;28;20200;-75
2023/08/06 00:35:15;;;;;;;6.75;1.92;;;15.50;99.90;;;;;;5073035;28;20280;-76
2023/08/06 00:37:46;;;;;;;5.57;1.77;;;15.50;99.90;;;;;;5073397;28;20569;-76
2023/08/06 00:40:16;;;;;;;36.15;23.33;;;15.60;99.90;;;;;;5073402;28;20683;-76
2023/08/06 00:42:49;;;;;;;13.88;4.53;;;15.60;99.90;;;;;;5071977;28;20185;-76
2023/08/06 00:45:20;;;;;;;12.65;4.63;;;15.60;99.90;;;;;;5065582;28;20193;-75
2023/08/06 00:47:51;;;;;;;11.25;4.95;;;15.60;99.90;;;;;;5059076;28;20259;-75
2023/08/06 00:50:22;;;;;;;13.35;4.45;;;15.60;99.90;;;;;;5072840;28;20228;-75
2023/08/06 00:52:53;;;;;;;9.55;2.40;;;15.60;99.90;;;;;;5060230;28;20186;-78
2023/08/06 00:55:24;;;;;;;5.82;2.20;;;15.70;99.90;;;;;;5056413;28;20268;-76
2023/08/06 00:57:58;;;;;;;5.03;1.45;;;15.70;99.90;;;;;;5054516;28;20219;-76
2023/08/06 01:00:28;;;;;;;10.10;2.08;;;15.70;99.90;;;;;;5053640;28;20188;-75
2023/08/06 01:02:59;;;;;;;7.43;1.90;;;15.70;99.90;;;;;;5060471;28;20223;-80
2023/08/06 01:05:30;;;;;;;6.82;1.75;;;15.80;99.90;;;;;;5073228;28;20205;-75
2023/08/06 01:08:12;;;;;;;4.32;1.60;;;15.80;99.90;;;;;;5072758;28;20220;-76
2023/08/06 01:10:54;;;;;;;6.13;1.75;;;15.80;99.90;;;;;;5067337;28;20666;-74
2023/08/06 01:13:34;;;;;;;6.82;1.70;;;15.90;99.90;;;;;;5055297;28;21480;-77
2023/08/06 01:16:07;;;;;;;5.55;1.30;;;15.90;99.90;;;;;;5066156;28;20189;-77
2023/08/06 01:18:39;;;;;;;8.32;1.50;;;15.90;99.90;;;;;;5071642;28;20599;-77
2023/08/06 01:21:11;;;;;;;3.72;1.38;;;15.80;99.90;;;;;;5052260;28;20562;-76
2023/08/06 01:23:43;;;;;;;6.47;1.50;;;15.90;99.90;;;;;;5052531;28;20197;-76
2023/08/06 01:26:21;;;;;;;9.55;1.50;;;15.90;99.90;;;;;;5052272;28;20590;-76
2023/08/06 01:28:59;;;;;;;6.63;1.85;;;16.00;99.90;;;;;;5052689;28;20672;-76
2023/08/06 01:31:32;;;;;;;6.47;1.48;;;16.00;99.90;;;;;;5052076;28;20193;-76
2023/08/06 01:34:05;;;;;;;5.25;1.27;;;16.00;99.90;;;;;;5052605;28;20201;-77
2023/08/06 01:36:39;;;;;;;5.05;1.40;;;16.10;99.90;;;;;;5053833;28;20189;-75
2023/08/06 01:39:10;;;;;;;5.68;1.30;;;16.10;99.90;;;;;;5053350;28;20202;-76
2023/08/06 01:41:40;;;;;;;3.90;1.15;;;16.10;99.90;;;;;;5058356;28;20185;-75
2023/08/06 01:44:11;;;;;;;6.05;1.33;;;16.10;99.90;;;;;;5072650;28;20199;-77
2023/08/06 01:46:42;;;;;;;6.68;1.38;;;16.20;99.90;;;;;;5068476;28;20195;-76
2023/08/06 01:49:13;;;;;;;5.70;1.45;;;16.20;99.90;;;;;;5073825;28;20213;-76
2023/08/06 01:51:45;;;;;;;4.63;1.33;;;16.20;99.90;;;;;;5068739;28;20558;-77
2023/08/06 01:54:16;;;;;;;7.25;1.35;;;16.30;99.90;;;;;;5064608;28;20187;-75
2023/08/06 01:56:47;;;;;;;3.70;1.02;;;16.30;99.90;;;;;;5059927;28;20777;-75
2023/08/06 01:59:18;;;;;;;4.38;1.25;;;16.30;99.90;;;;;;5057435;28;20197;-75
2023/08/06 02:01:49;;;;;;;5.80;1.02;;;16.40;99.90;;;;;;5062000;28;20197;-74
2023/08/06 02:04:19;;;;;;;3.95;1.27;;;16.50;99.90;;;;;;5057814;28;20202;-75
2023/08/06 02:06:52;;;;;;;50.13;35.55;;;16.60;99.90;;;;;;5063096;28;20197;-76
2023/08/06 02:09:23;;;;;;;11.63;4.85;;;16.60;99.90;;;;;;5055709;28;20217;-77
2023/08/06 02:11:53;;;;;;;7.45;2.85;;;16.70;99.90;;;;;;5055717;28;20208;-77
2023/08/06 02:14:24;;;;;;;13.32;6.45;;;16.70;99.90;;;;;;5053379;28;20236;-76
2023/08/06 02:16:55;;;;;;;7.35;3.10;;;16.80;99.90;;;;;;5055574;28;20197;-75
2023/08/06 02:19:25;;;;;;;7.45;3.10;;;16.90;99.90;;;;;;5055943;28;20213;-75
2023/08/06 02:21:58;;;;;;;6.07;1.30;;;17.10;99.90;;;;;;5056458;28;20197;-77
2023/08/06 02:24:29;;;;;;;9.35;1.75;;;17.20;99.90;;;;;;5065671;28;20225;-76
2023/08/06 02:27:00;;;;;;;4.10;1.20;;;17.20;99.90;;;;;;5060294;28;20200;-77
2023/08/06 02:29:30;;;;;;;10.18;3.20;;;17.30;99.90;;;;;;5055773;28;20222;-77
2023/08/06 02:32:02;;;;;;;5.32;1.40;;;17.40;99.90;;;;;;5055562;28;20190;-78
2023/08/06 02:34:32;;;;;;;5.43;1.30;;;17.40;99.90;;;;;;5055611;28;20198;-77
2023/08/06 02:37:05;;;;;;;4.43;1.40;;;17.40;99.90;;;;;;5055572;28;20197;-77
2023/08/06 02:39:39;;;;;;;3.05;1.40;;;17.30;99.90;;;;;;5059642;28;20205;-78
2023/08/06 02:42:10;;;;;;;5.03;1.38;;;17.30;99.90;;;;;;5054698;28;20216;-77
2023/08/06 02:44:41;;;;;;;3.92;1.27;;;17.20;99.90;;;;;;5064733;28;20544;-77
2023/08/06 02:47:11;;;;;;;5.03;1.30;;;17.20;99.90;;;;;;5069089;28;20197;-76
2023/08/06 02:49:42;;;;;;;5.38;1.48;;;17.10;99.90;;;;;;5069454;28;20232;-77
2023/08/06 02:52:15;;;;;;;5.68;1.20;;;17.00;99.90;;;;;;5060057;28;20668;-77
2023/08/06 02:54:45;;;;;;;4.32;1.40;;;16.90;99.90;;;;;;5055201;28;20558;-77
2023/08/06 02:57:16;;;;;;;5.00;1.40;;;16.80;99.90;;;;;;5073813;28;20536;-77
2023/08/06 02:59:47;;;;;;;3.50;1.23;;;16.80;99.90;;;;;;5056221;28;20193;-76
2023/08/06 03:02:17;;;;;;;5.75;1.70;;;16.80;99.90;;;;;;5061567;28;20651;-77
2023/08/06 03:04:48;;;;;;;11.10;1.27;;;16.80;99.90;;;;;;5059150;28;20517;-77
2023/08/06 03:07:21;;;;;;;6.22;1.42;;;16.70;99.90;;;;;;5070296;28;20197;-74
2023/08/06 03:09:52;;;;;;;5.10;1.17;;;16.70;99.90;;;;;;5052763;28;20213;-77
2023/08/06 03:12:22;;;;;;;4.07;1.40;;;16.70;99.90;;;;;;5054140;28;20394;-77
2023/08/06 03:14:53;;;;;;;7.07;1.20;;;16.60;99.90;;;;;;5057789;28;20190;-76
2023/08/06 03:17:24;;;;;;;3.28;0.95;;;16.70;99.90;;;;;;5073387;28;20193;-77
2023/08/06 03:19:54;;;;;;;6.75;1.45;;;16.60;99.90;;;;;;5062849;28;20197;-77
2023/08/06 03:22:27;;;;;;;4.78;1.33;;;16.60;99.90;;;;;;5056702;28;20566;-77
2023/08/06 03:24:58;;;;;;;5.35;1.30;;;16.70;99.90;;;;;;5055408;28;20197;-77
2023/08/06 03:27:28;;;;;;;3.90;1.10;;;16.70;99.90;;;;;;5054420;28;20194;-78
2023/08/06 03:30:00;;;;;;;5.97;1.30;;;16.70;99.90;;;;;;5055286;28;20686;-78
2023/08/06 03:32:31;;;;;;;5.13;1.25;;;16.70;99.90;;;;;;5071268;28;20242;-78
2023/08/06 03:35:02;;;;;;;2.85;1.10;;;16.70;99.90;;;;;;5074302;28;20199;-79
2023/08/06 03:37:35;;;;;;;2.95;1.40;;;16.80;99.90;;;;;;5074041;28;20562;-78
2023/08/06 03:40:05;;;;;;;5.47;1.30;;;16.80;99.90;;;;;;5067370;28;20227;-77
2023/08/06 03:42:36;;;;;;;2.60;1.13;;;16.70;99.90;;;;;;5072031;28;20212;-77
2023/08/06 03:45:08;;;;;;;5.22;1.20;;;16.70;99.90;;;;;;5062720;28;20559;-76
2023/08/06 03:47:38;;;;;;;6.10;1.20;;;16.80;99.90;;;;;;5070855;28;20657;-76
2023/08/06 03:50:09;;;;;;;7.22;1.20;;;16.70;99.90;;;;;;5055002;28;20214;-78
2023/08/06 03:52:42;;;;;;;6.75;1.27;;;16.70;99.90;;;;;;5051826;28;20193;-77
2023/08/06 03:55:13;;;;;;;3.85;1.23;;;16.70;99.90;;;;;;5051944;28;20197;-76
2023/08/06 03:57:43;;;;;;;7.57;1.10;;;16.70;99.90;;;;;;5055829;28;20656;-76
2023/08/06 04:00:15;;;;;;;4.90;1.73;;;16.70;99.90;;;;;;5065355;28;20188;-77
2023/08/06 04:02:46;;;;;;;4.60;1.15;;;16.70;99.90;;;;;;5068585;28;20240;-78
2023/08/06 04:05:17;;;;;;;3.78;1.15;;;16.70;99.90;;;;;;5053660;28;20240;-77
2023/08/06 04:07:49;;;;;;;5.85;1.40;;;16.70;99.90;;;;;;5061258;28;20193;-76
2023/08/06 04:10:20;;;;;;;7.00;1.10;;;16.70;99.90;;;;;;5053740;28;20228;-75
2023/08/06 04:12:51;;;;;;;5.93;1.33;;;16.70;99.90;;;;;;5054692;28;20688;-76
2023/08/06 04:15:21;;;;;;;4.97;1.27;;;16.70;99.90;;;;;;5053387;28;20194;-76
2023/08/06 04:17:52;;;;;;;4.05;1.30;;;16.60;99.90;;;;;;5053510;28;20189;-76
2023/08/06 04:20:23;;;;;;;5.20;1.40;;;16.50;99.90;;;;;;5055228;28;20197;-75
2023/08/06 04:22:56;;;;;;;4.57;1.40;;;16.50;99.90;;;;;;5064828;28;20638;-76
2023/08/06 04:25:27;;;;;;;5.70;1.45;;;16.50;99.90;;;;;;5069988;28;20193;-76
2023/08/06 04:27:57;;;;;;;4.60;1.33;;;16.60;99.90;;;;;;5055558;28;20200;-75
2023/08/06 04:30:28;;;;;;;6.15;1.35;;;16.60;99.90;;;;;;5058624;28;20244;-75
2023/08/06 04:33:00;;;;;;;4.85;1.38;;;16.60;99.90;;;;;;5065982;28;20702;-74
2023/08/06 04:35:31;;;;;;;5.25;1.10;;;16.60;99.90;;;;;;5056215;28;20197;-75
2023/08/06 04:38:03;;;;;;;3.40;1.20;;;16.60;99.90;;;;;;5057370;28;20197;-76
2023/08/06 04:40:37;;;;;;;4.20;1.20;;;16.70;99.90;;;;;;5054405;28;20205;-75
2023/08/06 04:43:07;;;;;;;4.25;1.38;;;16.70;99.90;;;;;;5058939;28;20196;-75
2023/08/06 04:45:38;;;;;;;5.80;1.50;;;16.80;99.90;;;;;;5069353;28;20192;-74
2023/08/06 04:48:09;;;;;;;4.45;1.25;;;16.80;99.90;;;;;;5053505;28;20197;-75
2023/08/06 04:50:40;;;;;;;5.32;1.33;;;16.80;99.90;;;;;;5057313;28;20239;-75
2023/08/06 04:53:13;;;;;;;4.20;1.38;;;16.80;99.90;;;;;;5063944;28;20204;-75
2023/08/06 04:55:43;;;;;;;5.00;1.40;;;16.70;99.90;;;;;;5071282;28;20199;-74
2023/08/06 04:58:15;;;;;;;4.30;1.10;;;16.60;99.90;;;;;;5057227;28;20254;-75
2023/08/06 05:00:46;;;;;;;5.97;1.23;;;16.60;99.90;;;;;;5060008;28;20660;-75
2023/08/06 05:03:16;;;;;;;4.53;1.30;;;16.50;99.90;;;;;;5052644;28;20248;-75
2023/08/06 05:05:48;;;;;;;4.63;1.05;;;16.40;99.90;;;;;;5063232;28;20641;-74
2023/08/06 05:08:21;;;;;;;3.10;1.15;;;16.40;99.90;;;;;;5071283;28;20224;-76
2023/08/06 05:10:51;;;;;;;4.13;1.10;;;16.30;99.90;;;;;;5064424;28;20205;-75
2023/08/06 05:13:22;;;;;;;3.85;1.10;;;16.30;99.90;;;;;;5063004;28;21246;-75
2023/08/06 05:15:53;;;;;;;3.83;1.08;;;16.30;99.90;;;;;;5073025;28;20189;-77
2023/08/06 05:18:24;;;;;;;4.97;1.13;;;16.30;99.90;;;;;;5063475;28;20569;-79
2023/08/06 05:20:54;;;;;;;3.50;1.15;;;16.30;99.90;;;;;;5052345;28;20672;-77
2023/08/06 05:23:27;;;;;;;4.20;1.25;;;16.20;99.90;;;;;;5053903;28;20200;-77
2023/08/06 05:25:58;;;;;;;3.15;0.90;;;16.20;99.90;;;;;;5056952;28;20193;-76
2023/08/06 05:28:28;;;;;;;5.72;1.02;;;16.20;99.90;;;;;;5056631;28;20194;-76
2023/08/06 05:30:59;;;;;;;2.83;1.20;;;16.10;99.90;;;;;;5058873;28;20206;-77
2023/08/06 05:33:30;;;;;;;5.95;1.30;;;16.10;99.90;;;;;;5056562;28;20212;-76
2023/08/06 05:36:00;;;;;;;3.75;1.27;;;16.10;99.90;;;;;;5064502;28;20204;-76
2023/08/06 05:38:34;;;;;;;4.20;1.45;;;16.10;99.90;;;;;;5076273;28;20189;-76
2023/08/06 05:41:05;;;;;;;3.70;1.20;;;16.10;99.90;;;;;;5067891;28;20198;-75
2023/08/06 05:43:36;;;;;;;4.68;1.27;;;16.10;99.90;;;;;;5058555;28;20247;-75
2023/08/06 05:46:07;;;;;;;5.45;1.40;;;16.10;99.90;;;;;;5061666;28;20250;-75
2023/08/06 05:48:38;;;;;;;3.88;1.38;;;16.00;99.90;;;;;;5055982;28;20217;-75
2023/08/06 05:51:08;;;;;;;4.38;1.38;;;16.10;99.90;;;;;;5058430;28;20197;-75
2023/08/06 05:53:41;;;;;;;5.20;1.33;;;16.10;99.90;;;;;;5055918;28;20193;-74
2023/08/06 05:56:12;;;;;;;5.97;1.40;;;16.10;99.90;;;;;;5057264;28;20190;-76
2023/08/06 05:58:42;;;;;;;3.92;1.23;;;16.00;99.90;;;;;;5056305;28;20190;-75
2023/08/06 06:01:14;;;;;;;2.95;1.23;;;16.00;99.90;;;;;;5058839;28;20367;-76
2023/08/06 06:03:44;;;;;;;4.60;1.30;;;16.00;99.90;;;;;;5065269;28;20263;-77
2023/08/06 06:06:16;;;;;;;7.63;1.55;;;16.00;99.90;;;;;;5057761;28;20192;-79
2023/08/06 06:08:48;;;;;;;3.28;1.10;;;16.00;99.90;;;;;;5060088;28;20194;-78
2023/08/06 06:11:21;;;;;;;2.70;1.17;;;15.90;99.90;;;;;;5070397;28;20200;-77
2023/08/06 06:13:53;;;;;;;5.10;1.15;;;15.90;99.90;;;;;;5074427;28;20228;-76
2023/08/06 06:16:24;;;;;;;4.78;1.05;;;15.90;99.90;;;;;;5075738;28;20184;-76
2023/08/06 06:18:57;;;;;;;3.95;1.35;;;15.90;99.90;;;;;;5075498;28;20192;-77
2023/08/06 06:21:27;;;;;;;3.67;1.20;;;15.90;99.90;;;;;;5077976;28;20193;-77
2023/08/06 06:24:00;;;;;;;3.78;1.50;;;15.90;99.90;;;;;;5060956;28;20266;-77
2023/08/06 06:26:31;;;;;;;4.88;1.27;;;15.80;99.90;;;;;;5058554;28;20188;-76
2023/08/06 06:29:01;;;;;;;4.82;1.67;;;15.90;99.90;;;;;;5070236;28;20211;-77
2023/08/06 06:31:32;;;;;;;3.67;1.20;;;15.80;99.90;;;;;;5063399;28;20262;-77
2023/08/06 06:34:03;;;;;;;5.15;1.10;;;15.80;99.90;;;;;;5054963;28;20208;-77
2023/08/06 06:36:34;;;;;;;5.28;1.30;;;15.80;99.90;;;;;;5058575;28;20648;-77
2023/08/06 06:39:08;;;;;;;5.05;1.10;;;15.80;99.90;;;;;;5075326;28;20189;-77
2023/08/06 06:41:38;;;;;;;3.40;1.77;;;15.90;99.90;;;;;;5075468;28;20595;-76
2023/08/06 06:44:10;;;;;;;4.47;1.20;;;15.90;99.90;;;;;;5067464;28;20208;-77
2023/08/06 06:46:40;;;;;;;4.63;1.05;;;15.90;99.90;;;;;;5059700;28;20658;-76
2023/08/06 06:49:11;;;;;;;3.28;0.85;;;15.90;99.90;;;;;;5066444;28;20188;-77
2023/08/06 06:51:42;;;;;;;4.75;1.17;;;15.90;99.90;;;;;;5064083;28;20200;-76
2023/08/06 06:54:14;;;;;;;4.15;1.40;;;15.90;99.90;;;;;;5061622;28;20201;-76
2023/08/06 06:56:45;;;;;;;4.85;1.48;;;15.90;99.90;;;;;;5070272;28;20192;-76
2023/08/06 06:59:16;;;;;;;3.38;1.30;;;15.90;99.90;;;;;;5059560;28;20194;-76
2023/08/06 07:01:47;;;;;;;5.07;1.40;;;15.80;99.90;;;;;;5055753;28;20656;-76
2023/08/06 07:04:17;;;;;;;4.20;1.38;;;15.80;99.90;;;;;;5079629;28;20228;-76
2023/08/06 07:06:48;;;;;;;3.92;1.10;;;15.80;99.90;;;;;;5073956;28;20637;-77
2023/08/06 07:09:21;;;;;;;2.28;1.08;;;15.70;99.90;;;;;;5056215;28;20202;-76
2023/08/06 07:11:51;;;;;;;6.70;1.38;;;15.70;99.90;;;;;;5053778;28;20197;-76
2023/08/06 07:14:22;;;;;;;3.45;1.30;;;15.60;99.90;;;;;;5054643;28;20703;-76
2023/08/06 07:16:53;;;;;;;2.33;1.13;;;15.50;99.90;;;;;;5085100;28;20189;-76
2023/08/06 07:19:24;;;;;;;1.85;1.15;;;15.40;99.90;;;;;;5074007;28;20641;-76
2023/08/06 07:21:55;;;;;;;3.97;1.20;;;15.40;99.90;;;;;;5075342;28;20196;-76
2023/08/06 07:24:28;;;;;;;3.20;1.23;;;15.30;99.90;;;;;;5071179;28;20200;-76
2023/08/06 07:26:59;;;;;;;2.45;1.30;;;15.30;99.90;;;;;;5089079;28;20209;-76
2023/08/06 07:29:30;;;;;;;5.90;1.30;;;15.20;99.90;;;;;;5070887;28;20216;-76
2023/08/06 07:32:00;;;;;;;4.38;1.55;;;15.20;99.90;;;;;;5068536;28;20193;-76
2023/08/06 07:34:31;;;;;;;4.53;1.30;;;15.10;99.90;;;;;;5065314;28;20251;-76
2023/08/06 07:37:02;;;;;;;4.32;1.10;;;15.10;99.90;;;;;;5076440;28;20191;-76
2023/08/06 07:39:34;;;;;;;3.92;1.58;;;15.10;99.90;;;;;;5092812;28;20196;-76
2023/08/06 07:42:06;;;;;;;5.40;1.50;;;15.10;99.90;;;;;;5075284;28;20199;-76
2023/08/06 07:44:37;;;;;;;5.60;1.77;;;15.00;99.90;;;;;;5065312;28;20216;-76
2023/08/06 07:47:08;;;;;;;5.47;1.63;;;15.00;99.90;;;;;;5053729;28;20197;-76
2023/08/06 07:49:39;;;;;;;2.45;1.30;;;15.00;99.90;;;;;;5053866;28;20241;-76
2023/08/06 07:52:11;;;;;;;2.35;1.33;;;14.90;99.90;;;;;;5054454;28;20189;-75
2023/08/06 07:54:43;;;;;;;4.70;1.90;;;14.80;99.90;;;;;;5055745;28;20236;-76
2023/08/06 07:57:14;;;;;;;3.28;1.30;;;14.80;99.90;;;;;;5072280;28;20182;-76
2023/08/06 07:59:45;;;;;;;3.78;1.40;;;14.80;99.90;;;;;;5060145;28;20205;-76
2023/08/06 08:02:16;;;;;;;3.67;1.40;;;14.70;99.90;;;;;;5052575;28;20217;-76
2023/08/06 08:04:47;;;;;;;5.10;1.70;;;14.70;99.90;;;;;;5053075;28;20194;-76
2023/08/06 08:07:18;;;;;;;7.40;1.80;;;14.70;99.90;;;;;;5053095;28;20600;-76
2023/08/06 08:09:50;;;;;;;3.88;1.30;;;14.60;99.90;;;;;;5053082;28;20213;-76
2023/08/06 08:12:21;;;;;;;4.15;1.35;;;14.60;99.90;;;;;;5053577;28;20313;-76
2023/08/06 08:14:52;;;;;;;4.75;1.60;;;14.50;99.90;;;;;;5055179;28;20199;-76
2023/08/06 08:17:23;;;;;;;2.47;1.50;;;14.50;99.90;;;;;;5068307;28;20200;-76
2023/08/06 08:19:53;;;;;;;5.93;1.70;;;14.50;99.90;;;;;;5063382;28;20205;-76
2023/08/06 08:22:24;;;;;;;2.95;1.50;;;14.40;99.90;;;;;;5073106;28;20207;-76
2023/08/06 08:24:57;;;;;;;3.45;1.60;;;14.40;99.90;;;;;;5055532;28;20193;-76
2023/08/06 08:27:28;;;;;;;3.45;1.50;;;14.40;99.90;;;;;;5061039;28;20197;-76
2023/08/06 08:29:58;;;;;;;5.10;1.50;;;14.30;99.90;;;;;;5073029;28;20230;-76
2023/08/06 08:32:29;;;;;;;4.35;1.83;;;14.30;99.90;;;;;;5063894;28;20197;-76
2023/08/06 08:35:00;;;;;;;6.18;1.90;;;14.30;99.90;;;;;;5055026;28;20206;-77
2023/08/06 08:37:31;;;;;;;3.55;1.90;;;14.20;99.90;;;;;;5067469;28;20227;-76
2023/08/06 08:40:04;;;;;;;3.78;1.60;;;14.20;99.90;;;;;;5066651;28;20197;-76
2023/08/06 08:42:35;;;;;;;3.83;2.08;;;14.10;99.90;;;;;;5068691;28;20201;-75
2023/08/06 08:45:06;;;;;;;3.65;1.70;;;14.20;99.90;;;;;;5054912;28;20733;-76
2023/08/06 08:47:38;;;;;;;4.93;1.98;;;14.10;99.90;;;;;;5070852;28;20196;-76
2023/08/06 08:50:11;;;;;;;4.43;1.90;;;14.00;99.90;;;;;;5065332;28;20245;-76
2023/08/06 08:52:42;;;;;;;4.22;2.30;;;14.10;99.90;;;;;;5063221;28;20201;-76
2023/08/06 08:55:18;;;;;;;4.07;2.10;;;14.00;99.90;;;;;;5060073;28;20198;-76
2023/08/06 08:57:49;;;;;;;3.35;2.00;;;14.00;99.90;;;;;;5062176;28;20243;-76
2023/08/06 09:00:20;;;;;;;3.75;2.08;;;14.00;99.90;;;;;;5062986;28;20201;-77
2023/08/06 09:02:51;;;;;;;3.53;1.83;;;14.00;99.90;;;;;;5063434;28;20289;-76
2023/08/06 09:05:23;;;;;;;3.13;1.80;;;14.00;99.90;;;;;;5065265;28;20562;-76
2023/08/06 09:07:56;;;;;;;3.88;1.75;;;13.90;99.90;;;;;;5063230;28;20657;-76
2023/08/06 09:10:29;;;;;;;2.97;1.75;;;13.90;99.90;;;;;;5060057;28;20684;-76
2023/08/06 09:13:02;;;;;;;4.00;2.00;;;13.90;99.90;;;;;;5071401;28;20224;-76
2023/08/06 09:15:33;;;;;;;5.90;2.17;;;13.90;99.90;;;;;;5066667;28;20205;-76
2023/08/06 09:18:11;;;;;;;4.82;2.05;;;13.90;99.90;;;;;;5069335;28;20203;-77
2023/08/06 09:20:42;;;;;;;3.25;2.35;;;13.90;99.90;;;;;;5052400;28;20197;-76
2023/08/06 09:23:13;;;;;;;3.03;2.03;;;13.80;99.90;;;;;;5068164;28;20193;-76
2023/08/06 09:25:46;;;;;;;5.47;2.17;;;13.80;99.90;;;;;;5070568;28;20204;-76
2023/08/06 09:28:16;;;;;;;3.78;2.00;;;13.80;99.90;;;;;;5056974;28;20200;-76
2023/08/06 09:30:50;;;;;;;5.00;2.22;;;13.80;99.90;;;;;;5058469;28;20213;-76
2023/08/06 09:33:24;;;;;;;4.45;2.10;;;13.80;99.90;;;;;;5062738;28;20649;-76
2023/08/06 09:35:55;;;;;;;4.25;2.20;;;13.80;99.90;;;;;;5064486;28;20242;-76
2023/08/06 09:38:26;;;;;;;4.00;2.00;;;13.80;99.90;;;;;;5061239;28;20660;-77
2023/08/06 09:40:59;;;;;;;4.03;1.95;;;13.80;99.90;;;;;;5070432;28;20208;-76
2023/08/06 09:43:30;;;;;;;4.93;1.95;;;13.80;99.90;;;;;;5073019;28;20205;-76
2023/08/06 09:46:01;;;;;;;3.22;1.85;;;13.80;99.90;;;;;;5059780;28;20208;-76
2023/08/06 09:48:32;;;;;;;2.83;2.15;;;14.00;99.90;;;;;;5061344;28;20202;-76
2023/08/06 09:51:04;;;;;;;3.10;2.10;;;13.90;99.90;;;;;;5070871;28;20242;-76
2023/08/06 09:53:36;;;;;;;4.85;2.08;;;13.90;99.90;;;;;;5071039;28;20204;-76
2023/08/06 09:56:09;;;;;;;5.30;2.20;;;13.90;99.90;;;;;;5051824;28;20190;-76
2023/08/06 09:58:42;;;;;;;5.30;2.25;;;13.90;99.90;;;;;;5061288;28;20193;-77
2023/08/06 10:01:13;;;;;;;4.95;2.15;;;13.90;99.90;;;;;;5064397;28;20612;-77
2023/08/06 10:03:45;;;;;;;2.80;2.10;;;13.90;99.90;;;;;;5070391;28;20696;-76
2023/08/06 10:06:16;;;;;;;3.95;2.30;;;13.90;99.90;;;;;;5066612;28;20667;-76
2023/08/06 10:08:47;;;;;;;3.42;2.00;;;14.00;99.90;;;;;;5062677;28;20193;-76
2023/08/06 10:11:23;;;;;;;2.97;2.10;;;14.00;99.90;;;;;;5067780;28;20224;-76
2023/08/06 10:13:56;;;;;;;3.85;2.03;;;14.00;99.90;;;;;;5054582;28;20192;-76
2023/08/06 10:16:27;;;;;;;2.90;2.00;;;14.00;99.90;;;;;;5056071;28;20194;-75
2023/08/06 10:18:58;;;;;;;3.00;1.83;;;14.00;99.90;;;;;;5060420;28;20193;-76
2023/08/06 10:21:30;;;;;;;3.40;2.22;;;14.00;99.90;;;;;;5055472;28;20672;-75
2023/08/06 10:24:01;;;;;;;4.40;1.90;;;14.00;99.90;;;;;;5056893;28;20622;-76
2023/08/06 10:26:34;;;;;;;3.58;1.90;;;13.90;99.90;;;;;;5060440;28;20668;-76
2023/08/06 10:29:24;;;;;;;3.17;1.77;;;14.00;99.90;;;;;;5064465;28;20189;-76
2023/08/06 10:32:02;;;;;;;4.25;1.88;;;14.00;99.90;;;;;;5068048;28;20233;-76
2023/08/06 10:35:00;;;;;;;5.28;2.55;;;14.00;99.90;;;;;;5065120;28;20204;-76
2023/08/06 10:37:39;;;;;;;4.63;2.10;;;14.00;99.90;;;;;;5075059;28;20193;-76
2023/08/06 10:40:11;;;;;;;4.50;1.85;;;14.00;99.90;;;;;;5065050;28;20194;-76
2023/08/06 10:42:44;;;;;;;5.15;2.60;;;13.90;99.90;;;;;;5054848;28;20202;-76
2023/08/06 10:45:24;;;;;;;4.82;2.20;;;13.90;99.90;;;;;;5060549;28;20688;-75
2023/08/06 10:47:54;;;;;;;4.05;2.42;;;13.90;99.90;;;;;;5075437;28;20232;-76
2023/08/06 10:50:25;;;;;;;5.28;2.22;;;13.90;99.90;;;;;;5062740;28;20198;-76
2023/08/06 10:52:56;;;;;;;5.07;2.40;;;13.90;99.90;;;;;;5055071;28;20634;-75
2023/08/06 10:55:28;;;;;;;5.13;2.40;;;13.90;99.90;;;;;;5055226;28;20200;-75
2023/08/06 10:58:02;;;;;;;3.67;2.50;;;13.80;99.90;;;;;;5070685;28;20567;-76
2023/08/06 11:00:32;;;;;;;6.43;2.30;;;13.80;99.90;;;;;;5057828;28;20205;-76
2023/08/06 11:03:03;;;;;;;3.55;2.53;;;13.80;99.90;;;;;;5066014;28;20224;-75
2023/08/06 11:05:35;;;;;;;3.50;2.28;;;13.70;99.90;;;;;;5062399;28;20707;-75
2023/08/06 11:08:06;;;;;;;3.47;2.30;;;13.70;99.90;;;;;;5061071;28;20194;-76
2023/08/06 11:10:37;;;;;;;4.43;2.25;;;13.70;99.90;;;;;;5052213;28;20198;-76
2023/08/06 11:13:10;;;;;;;4.07;2.80;;;13.70;99.90;;;;;;5053731;28;20708;-76
2023/08/06 11:15:41;;;;;;;3.92;2.80;;;13.70;99.90;;;;;;5056050;28;20189;-76
2023/08/06 11:18:11;;;;;;;6.55;2.83;;;13.70;99.90;;;;;;5056687;28;20375;-76
2023/08/06 11:20:44;;;;;;;4.00;2.80;;;13.70;99.90;;;;;;5072823;28;20193;-75
2023/08/06 11:23:15;;;;;;;7.60;3.05;;;13.60;99.90;;;;;;5062193;28;20198;-76
2023/08/06 11:25:48;;;;;;;4.40;2.72;;;13.60;99.90;;;;;;5052557;28;20197;-76
2023/08/06 11:28:23;;;;;;;4.20;2.97;;;13.60;99.90;;;;;;5052537;28;20190;-76
2023/08/06 11:30:55;;;;;;;4.90;2.95;;;13.60;99.90;;;;;;5052656;28;20636;-75
2023/08/06 11:33:26;;;;;;;5.20;3.20;;;13.60;99.90;;;;;;5052923;28;20613;-76
2023/08/06 11:35:59;;;;;;;4.57;3.15;;;13.60;99.90;;;;;;5052788;28;20198;-76
2023/08/06 11:38:30;;;;;;;6.20;3.17;;;13.60;99.90;;;;;;5052965;28;20204;-76
2023/08/06 11:41:00;;;;;;;4.15;2.97;;;13.50;99.90;;;;;;5056444;28;20206;-75
2023/08/06 11:43:35;;;;;;;5.72;2.67;;;13.50;99.90;;;;;;5053746;28;20221;-75
2023/08/06 11:46:06;;;;;;;4.20;2.78;;;13.50;99.90;;;;;;5056251;28;20193;-76
2023/08/06 11:48:52;;;;;;;3.55;2.50;;;13.50;99.90;;;;;;5066601;28;20545;-76
2023/08/06 11:51:26;;;;;;;7.03;3.03;;;13.40;99.90;;;;;;5060531;28;20214;-76
2023/08/06 11:53:59;;;;;;;3.53;2.75;;;13.40;99.90;;;;;;5052922;28;20228;-76
2023/08/06 11:56:31;;;;;;;5.70;3.10;;;13.30;99.90;;;;;;5056208;28;20201;-76
2023/08/06 11:59:05;;;;;;;7.63;3.33;;;13.30;99.90;;;;;;5073094;28;20188;-75
2023/08/06 12:01:36;;;;;;;5.80;3.22;;;13.20;99.90;;;;;;5071332;28;20281;-76
2023/08/06 12:04:09;;;;;;;5.80;3.35;;;13.20;99.90;;;;;;4964284;28;3115120;-76
2023/08/06 12:06:46;;;;;;;6.47;3.15;;;13.20;99.90;;;;;;5073705;28;20234;-76
2023/08/06 12:09:17;;;;;;;5.25;3.10;;;13.10;99.90;;;;;;5073666;28;20195;-76
2023/08/06 12:11:47;;;;;;;6.20;3.35;;;13.10;99.90;;;;;;5053491;28;20232;-76
2023/08/06 12:14:20;;;;;;;5.18;3.53;;;13.10;99.90;;;;;;5053020;28;20204;-76
2023/08/06 12:16:51;;;;;;;5.80;3.30;;;13.10;99.90;;;;;;5052398;28;20193;-76
2023/08/06 12:19:23;;;;;;;6.20;3.17;;;13.00;99.90;;;;;;5057768;28;20182;-76
2023/08/06 12:21:54;;;;;;;6.28;3.53;;;13.00;99.90;;;;;;5053989;28;20208;-75
2023/08/06 12:24:24;;;;;;;6.63;3.53;;;12.90;99.90;;;;;;5067837;28;20191;-76
2023/08/06 12:26:57;;;;;;;6.18;3.33;;;12.90;99.90;;;;;;5055413;28;20665;-76
2023/08/06 12:29:31;;;;;;;5.20;3.55;;;12.90;99.90;;;;;;5065247;28;20208;-76
2023/08/06 12:32:01;;;;;;;4.47;3.22;;;12.80;99.90;;;;;;5051521;28;20553;-75
2023/08/06 12:34:32;;;;;;;5.57;3.45;;;12.80;99.90;;;;;;5060676;28;20200;-75
2023/08/06 12:37:03;;;;;;;4.88;3.58;;;12.80;99.90;;;;;;5058989;28;20227;-75
2023/08/06 12:39:34;;;;;;;5.22;3.38;;;12.80;99.90;;;;;;5052042;28;20562;-75
2023/08/06 12:42:05;;;;;;;6.03;3.53;;;12.70;99.90;;;;;;5067822;28;20193;-76
2023/08/06 12:44:38;;;;;;;8.23;4.32;;;12.70;99.90;;;;;;5058423;28;20197;-75
2023/08/06 12:47:09;;;;;;;8.60;4.63;;;12.70;99.90;;;;;;5064594;28;20197;-76
2023/08/06 12:49:40;;;;;;;7.80;4.45;;;12.70;99.90;;;;;;5071430;28;20272;-75
2023/08/06 12:52:12;;;;;;;10.23;4.93;;;12.70;99.90;;;;;;5072962;28;20220;-75
2023/08/06 12:54:43;;;;;;;8.63;4.60;;;12.70;99.90;;;;;;5072994;28;20243;-75
2023/08/06 12:57:14;;;;;;;7.35;4.43;;;12.70;99.90;;;;;;5073071;28;20645;-75
2023/08/06 12:59:46;;;;;;;7.60;4.38;;;12.60;99.90;;;;;;5071590;28;20675;-75
2023/08/06 13:02:18;;;;;;;6.82;4.35;;;12.60;99.90;;;;;;5072949;28;20228;-76
2023/08/06 13:04:50;;;;;;;6.03;4.15;;;12.60;99.90;;;;;;5066655;28;20197;-75
2023/08/06 13:07:20;;;;;;;7.25;4.55;;;12.60;99.90;;;;;;5053059;28;20196;-76
2023/08/06 13:09:51;;;;;;;6.38;4.25;;;12.50;99.90;;;;;;5052701;28;20202;-76